sensor_id;sensor_type;location;lat;lon;timestamp;P1;durP1;ratioP1;P2;durP2;ratioP2
54372;SDS011;69157;53.094;10.016;2023-05-19T00:02:14;2.45;;;1.58;;
54372;SDS011;69157;53.094;10.016;2023-05-19T00:04:40;2.08;;;1.73;;
54372;SDS011;69157;53.094;10.016;2023-05-19T00:07:08;2.95;;;1.73;;
54372;SDS011;69157;53.094;10.016;2023-05-19T00:09:35;3.13;;;1.85;;
54372;SDS011;69157;53.094;10.016;2023-05-19T00:12:01;5.45;;;1.73;;
54372;SDS011;69157;53.094;10.016;2023-05-19T00:14:28;2.35;;;1.58;;
54372;SDS011;69157;53.094;10.016;2023-05-19T00:16:54;1.75;;;1.38;;
54372;SDS011;69157;53.094;10.016;2023-05-19T00:19:21;1.92;;;1.67;;
54372;SDS011;69157;53.094;10.016;2023-05-19T00:21:48;5.82;;;2.30;;
54372;SDS011;69157;53.094;10.016;2023-05-19T00:24:14;3.35;;;1.85;;
54372;SDS011;69157;53.094;10.016;2023-05-19T00:26:40;3.20;;;1.50;;
54372;SDS011;69157;53.094;10.016;2023-05-19T00:29:06;4.65;;;2.17;;
54372;SDS011;69157;53.094;10.016;2023-05-19T00:31:32;2.70;;;1.92;;
54372;SDS011;69157;53.094;10.016;2023-05-19T00:33:58;6.35;;;1.75;;
54372;SDS011;69157;53.094;10.016;2023-05-19T00:36:25;1.67;;;1.52;;
54372;SDS011;69157;53.094;10.016;2023-05-19T00:38:51;2.47;;;2.00;;
54372;SDS011;69157;53.094;10.016;2023-05-19T00:41:17;4.30;;;1.95;;
54372;SDS011;69157;53.094;10.016;2023-05-19T00:43:43;3.38;;;1.88;;
54372;SDS011;69157;53.094;10.016;2023-05-19T00:46:09;2.80;;;1.73;;
54372;SDS011;69157;53.094;10.016;2023-05-19T00:48:35;2.33;;;1.60;;
54372;SDS011;69157;53.094;10.016;2023-05-19T00:51:01;5.13;;;1.95;;
54372;SDS011;69157;53.094;10.016;2023-05-19T00:53:30;3.65;;;2.20;;
54372;SDS011;69157;53.094;10.016;2023-05-19T00:55:57;2.78;;;1.95;;
54372;SDS011;69157;53.094;10.016;2023-05-19T00:58:24;3.85;;;1.70;;
54372;SDS011;69157;53.094;10.016;2023-05-19T01:00:57;3.03;;;1.95;;
54372;SDS011;69157;53.094;10.016;2023-05-19T01:03:32;5.68;;;1.65;;
54372;SDS011;69157;53.094;10.016;2023-05-19T01:06:01;2.73;;;2.03;;
54372;SDS011;69157;53.094;10.016;2023-05-19T01:08:31;1.98;;;1.77;;
54372;SDS011;69157;53.094;10.016;2023-05-19T01:10:57;5.07;;;2.13;;
54372;SDS011;69157;53.094;10.016;2023-05-19T01:13:24;2.10;;;1.65;;
54372;SDS011;69157;53.094;10.016;2023-05-19T01:18:42;2.85;;;1.98;;
54372;SDS011;69157;53.094;10.016;2023-05-19T01:21:24;4.90;;;2.45;;
54372;SDS011;69157;53.094;10.016;2023-05-19T01:23:53;4.80;;;2.03;;
54372;SDS011;69157;53.094;10.016;2023-05-19T01:29:15;2.65;;;1.60;;
54372;SDS011;69157;53.094;10.016;2023-05-19T01:31:43;5.20;;;1.95;;
54372;SDS011;69157;53.094;10.016;2023-05-19T01:34:12;4.53;;;2.10;;
54372;SDS011;69157;53.094;10.016;2023-05-19T01:36:40;2.00;;;1.55;;
54372;SDS011;69157;53.094;10.016;2023-05-19T01:39:08;6.07;;;1.98;;
54372;SDS011;69157;53.094;10.016;2023-05-19T01:41:34;3.05;;;2.00;;
54372;SDS011;69157;53.094;10.016;2023-05-19T01:44:01;8.68;;;2.20;;
54372;SDS011;69157;53.094;10.016;2023-05-19T01:46:27;2.53;;;1.88;;
54372;SDS011;69157;53.094;10.016;2023-05-19T01:48:53;2.85;;;2.13;;
54372;SDS011;69157;53.094;10.016;2023-05-19T01:51:20;4.28;;;1.50;;
54372;SDS011;69157;53.094;10.016;2023-05-19T01:53:46;4.30;;;1.92;;
54372;SDS011;69157;53.094;10.016;2023-05-19T01:56:13;2.92;;;1.73;;
54372;SDS011;69157;53.094;10.016;2023-05-19T01:58:45;4.20;;;2.35;;
54372;SDS011;69157;53.094;10.016;2023-05-19T02:06:41;2.30;;;1.75;;
54372;SDS011;69157;53.094;10.016;2023-05-19T02:11:53;2.78;;;2.00;;
54372;SDS011;69157;53.094;10.016;2023-05-19T02:14:23;3.25;;;2.20;;
54372;SDS011;69157;53.094;10.016;2023-05-19T02:16:50;1.77;;;1.33;;
54372;SDS011;69157;53.094;10.016;2023-05-19T02:19:20;2.22;;;1.83;;
54372;SDS011;69157;53.094;10.016;2023-05-19T02:21:46;3.08;;;2.28;;
54372;SDS011;69157;53.094;10.016;2023-05-19T02:24:12;3.28;;;2.15;;
54372;SDS011;69157;53.094;10.016;2023-05-19T02:26:38;3.70;;;2.22;;
54372;SDS011;69157;53.094;10.016;2023-05-19T02:29:05;2.25;;;1.63;;
54372;SDS011;69157;53.094;10.016;2023-05-19T02:31:31;5.15;;;2.22;;
54372;SDS011;69157;53.094;10.016;2023-05-19T02:33:57;2.65;;;1.88;;
54372;SDS011;69157;53.094;10.016;2023-05-19T02:36:23;7.63;;;2.55;;
54372;SDS011;69157;53.094;10.016;2023-05-19T02:38:50;3.38;;;2.00;;
54372;SDS011;69157;53.094;10.016;2023-05-19T02:41:16;3.67;;;1.80;;
54372;SDS011;69157;53.094;10.016;2023-05-19T02:43:42;2.58;;;1.85;;
54372;SDS011;69157;53.094;10.016;2023-05-19T02:46:09;3.13;;;1.95;;
54372;SDS011;69157;53.094;10.016;2023-05-19T02:48:35;2.63;;;2.03;;
54372;SDS011;69157;53.094;10.016;2023-05-19T02:51:01;3.63;;;2.00;;
54372;SDS011;69157;53.094;10.016;2023-05-19T02:53:27;2.35;;;1.90;;
54372;SDS011;69157;53.094;10.016;2023-05-19T02:55:53;2.30;;;1.63;;
54372;SDS011;69157;53.094;10.016;2023-05-19T02:58:19;6.80;;;1.70;;
54372;SDS011;69157;53.094;10.016;2023-05-19T03:00:45;2.67;;;1.77;;
54372;SDS011;69157;53.094;10.016;2023-05-19T03:03:11;4.25;;;2.08;;
54372;SDS011;69157;53.094;10.016;2023-05-19T03:05:37;2.25;;;1.77;;
54372;SDS011;69157;53.094;10.016;2023-05-19T03:08:03;1.85;;;1.50;;
54372;SDS011;69157;53.094;10.016;2023-05-19T03:10:30;2.00;;;1.67;;
54372;SDS011;69157;53.094;10.016;2023-05-19T03:12:56;4.15;;;2.40;;
54372;SDS011;69157;53.094;10.016;2023-05-19T03:15:22;2.67;;;1.67;;
54372;SDS011;69157;53.094;10.016;2023-05-19T03:17:48;7.75;;;2.30;;
54372;SDS011;69157;53.094;10.016;2023-05-19T03:20:14;3.38;;;2.03;;
54372;SDS011;69157;53.094;10.016;2023-05-19T03:22:40;2.08;;;1.83;;
54372;SDS011;69157;53.094;10.016;2023-05-19T03:25:06;2.95;;;2.22;;
54372;SDS011;69157;53.094;10.016;2023-05-19T03:27:33;1.70;;;1.60;;
54372;SDS011;69157;53.094;10.016;2023-05-19T03:29:59;4.40;;;1.73;;
54372;SDS011;69157;53.094;10.016;2023-05-19T03:32:25;4.30;;;2.15;;
54372;SDS011;69157;53.094;10.016;2023-05-19T03:34:51;2.17;;;1.77;;
54372;SDS011;69157;53.094;10.016;2023-05-19T03:37:17;2.88;;;1.67;;
54372;SDS011;69157;53.094;10.016;2023-05-19T03:39:43;4.25;;;1.83;;
54372;SDS011;69157;53.094;10.016;2023-05-19T03:42:09;3.33;;;1.77;;
54372;SDS011;69157;53.094;10.016;2023-05-19T03:44:35;3.78;;;1.83;;
54372;SDS011;69157;53.094;10.016;2023-05-19T03:47:01;2.60;;;1.80;;
54372;SDS011;69157;53.094;10.016;2023-05-19T03:49:27;2.85;;;1.80;;
54372;SDS011;69157;53.094;10.016;2023-05-19T03:51:53;3.65;;;2.55;;
54372;SDS011;69157;53.094;10.016;2023-05-19T03:54:19;3.13;;;1.90;;
54372;SDS011;69157;53.094;10.016;2023-05-19T03:56:46;5.45;;;2.35;;
54372;SDS011;69157;53.094;10.016;2023-05-19T03:59:12;2.83;;;1.80;;
54372;SDS011;69157;53.094;10.016;2023-05-19T04:01:40;3.05;;;2.10;;
54372;SDS011;69157;53.094;10.016;2023-05-19T04:04:06;4.25;;;2.22;;
54372;SDS011;69157;53.094;10.016;2023-05-19T04:06:32;3.05;;;2.55;;
54372;SDS011;69157;53.094;10.016;2023-05-19T04:09:01;3.80;;;2.17;;
54372;SDS011;69157;53.094;10.016;2023-05-19T04:11:28;2.65;;;1.80;;
54372;SDS011;69157;53.094;10.016;2023-05-19T04:13:54;3.28;;;2.00;;
54372;SDS011;69157;53.094;10.016;2023-05-19T04:16:20;7.82;;;1.80;;
54372;SDS011;69157;53.094;10.016;2023-05-19T04:18:46;7.15;;;1.95;;
54372;SDS011;69157;53.094;10.016;2023-05-19T04:21:12;2.70;;;2.10;;
54372;SDS011;69157;53.094;10.016;2023-05-19T04:23:38;2.78;;;1.65;;
54372;SDS011;69157;53.094;10.016;2023-05-19T04:26:04;3.40;;;2.10;;
54372;SDS011;69157;53.094;10.016;2023-05-19T04:28:30;3.30;;;1.90;;
54372;SDS011;69157;53.094;10.016;2023-05-19T04:30:59;3.33;;;1.98;;
54372;SDS011;69157;53.094;10.016;2023-05-19T04:33:27;5.88;;;1.83;;
54372;SDS011;69157;53.094;10.016;2023-05-19T04:35:53;4.13;;;2.85;;
54372;SDS011;69157;53.094;10.016;2023-05-19T04:38:19;4.93;;;2.28;;
54372;SDS011;69157;53.094;10.016;2023-05-19T04:40:46;3.33;;;2.17;;
54372;SDS011;69157;53.094;10.016;2023-05-19T04:43:14;3.25;;;1.98;;
54372;SDS011;69157;53.094;10.016;2023-05-19T04:45:40;2.67;;;1.90;;
54372;SDS011;69157;53.094;10.016;2023-05-19T04:48:06;6.03;;;2.63;;
54372;SDS011;69157;53.094;10.016;2023-05-19T04:50:32;2.47;;;1.65;;
54372;SDS011;69157;53.094;10.016;2023-05-19T04:52:59;2.75;;;1.95;;
54372;SDS011;69157;53.094;10.016;2023-05-19T04:55:25;4.68;;;2.10;;
54372;SDS011;69157;53.094;10.016;2023-05-19T04:57:51;3.72;;;2.00;;
54372;SDS011;69157;53.094;10.016;2023-05-19T05:00:17;3.13;;;2.00;;
54372;SDS011;69157;53.094;10.016;2023-05-19T05:02:44;4.50;;;2.08;;
54372;SDS011;69157;53.094;10.016;2023-05-19T05:05:10;4.85;;;2.13;;
54372;SDS011;69157;53.094;10.016;2023-05-19T05:07:36;8.25;;;1.88;;
54372;SDS011;69157;53.094;10.016;2023-05-19T05:10:02;3.03;;;2.05;;
54372;SDS011;69157;53.094;10.016;2023-05-19T05:12:28;3.72;;;2.58;;
54372;SDS011;69157;53.094;10.016;2023-05-19T05:14:54;2.70;;;1.88;;
54372;SDS011;69157;53.094;10.016;2023-05-19T05:17:20;4.25;;;1.77;;
54372;SDS011;69157;53.094;10.016;2023-05-19T05:19:47;2.95;;;2.20;;
54372;SDS011;69157;53.094;10.016;2023-05-19T05:22:13;4.28;;;2.00;;
54372;SDS011;69157;53.094;10.016;2023-05-19T05:24:39;4.32;;;2.45;;
54372;SDS011;69157;53.094;10.016;2023-05-19T05:27:05;7.70;;;2.35;;
54372;SDS011;69157;53.094;10.016;2023-05-19T05:29:33;5.18;;;2.20;;
54372;SDS011;69157;53.094;10.016;2023-05-19T05:32:00;4.30;;;1.83;;
54372;SDS011;69157;53.094;10.016;2023-05-19T05:34:26;3.00;;;2.00;;
54372;SDS011;69157;53.094;10.016;2023-05-19T05:36:53;3.38;;;1.73;;
54372;SDS011;69157;53.094;10.016;2023-05-19T05:39:19;3.17;;;1.98;;
54372;SDS011;69157;53.094;10.016;2023-05-19T05:41:45;5.57;;;2.20;;
54372;SDS011;69157;53.094;10.016;2023-05-19T05:44:11;4.03;;;2.17;;
54372;SDS011;69157;53.094;10.016;2023-05-19T05:46:38;4.07;;;2.05;;
54372;SDS011;69157;53.094;10.016;2023-05-19T05:49:04;3.70;;;1.77;;
54372;SDS011;69157;53.094;10.016;2023-05-19T05:51:30;4.10;;;1.83;;
54372;SDS011;69157;53.094;10.016;2023-05-19T05:53:57;6.80;;;2.25;;
54372;SDS011;69157;53.094;10.016;2023-05-19T05:56:25;2.67;;;1.80;;
54372;SDS011;69157;53.094;10.016;2023-05-19T05:58:51;4.43;;;2.10;;
54372;SDS011;69157;53.094;10.016;2023-05-19T06:01:17;2.92;;;1.90;;
54372;SDS011;69157;53.094;10.016;2023-05-19T06:03:44;3.70;;;1.70;;
54372;SDS011;69157;53.094;10.016;2023-05-19T06:06:11;2.05;;;1.83;;
54372;SDS011;69157;53.094;10.016;2023-05-19T06:08:38;4.38;;;1.67;;
54372;SDS011;69157;53.094;10.016;2023-05-19T06:11:04;4.53;;;2.13;;
54372;SDS011;69157;53.094;10.016;2023-05-19T06:13:33;4.30;;;1.90;;
54372;SDS011;69157;53.094;10.016;2023-05-19T06:15:59;4.28;;;1.73;;
54372;SDS011;69157;53.094;10.016;2023-05-19T06:18:26;7.50;;;1.88;;
54372;SDS011;69157;53.094;10.016;2023-05-19T06:20:52;2.58;;;1.50;;
54372;SDS011;69157;53.094;10.016;2023-05-19T06:23:18;3.00;;;1.42;;
54372;SDS011;69157;53.094;10.016;2023-05-19T06:25:44;2.95;;;1.27;;
54372;SDS011;69157;53.094;10.016;2023-05-19T06:28:10;3.50;;;1.60;;
54372;SDS011;69157;53.094;10.016;2023-05-19T06:30:36;3.55;;;1.45;;
54372;SDS011;69157;53.094;10.016;2023-05-19T06:33:03;4.00;;;1.45;;
54372;SDS011;69157;53.094;10.016;2023-05-19T06:35:29;2.67;;;1.55;;
54372;SDS011;69157;53.094;10.016;2023-05-19T06:37:55;1.65;;;1.23;;
54372;SDS011;69157;53.094;10.016;2023-05-19T06:40:22;3.25;;;1.42;;
54372;SDS011;69157;53.094;10.016;2023-05-19T06:42:48;3.58;;;1.35;;
54372;SDS011;69157;53.094;10.016;2023-05-19T06:45:14;2.88;;;1.27;;
54372;SDS011;69157;53.094;10.016;2023-05-19T06:47:40;2.17;;;1.05;;
54372;SDS011;69157;53.094;10.016;2023-05-19T06:50:07;4.78;;;1.67;;
54372;SDS011;69157;53.094;10.016;2023-05-19T06:52:33;4.55;;;1.40;;
54372;SDS011;69157;53.094;10.016;2023-05-19T06:54:59;2.72;;;1.33;;
54372;SDS011;69157;53.094;10.016;2023-05-19T06:57:25;2.53;;;1.55;;
54372;SDS011;69157;53.094;10.016;2023-05-19T06:59:52;4.28;;;1.13;;
54372;SDS011;69157;53.094;10.016;2023-05-19T07:02:18;4.28;;;1.20;;
54372;SDS011;69157;53.094;10.016;2023-05-19T07:04:44;3.22;;;1.15;;
54372;SDS011;69157;53.094;10.016;2023-05-19T07:07:11;1.15;;;1.00;;
54372;SDS011;69157;53.094;10.016;2023-05-19T07:09:37;3.67;;;1.10;;
54372;SDS011;69157;53.094;10.016;2023-05-19T07:12:03;5.50;;;1.40;;
54372;SDS011;69157;53.094;10.016;2023-05-19T07:14:29;2.15;;;0.98;;
54372;SDS011;69157;53.094;10.016;2023-05-19T07:16:56;2.78;;;1.17;;
54372;SDS011;69157;53.094;10.016;2023-05-19T07:19:22;1.83;;;1.10;;
54372;SDS011;69157;53.094;10.016;2023-05-19T07:21:48;1.17;;;0.93;;
54372;SDS011;69157;53.094;10.016;2023-05-19T07:24:14;2.38;;;1.33;;
54372;SDS011;69157;53.094;10.016;2023-05-19T07:26:40;4.63;;;1.38;;
54372;SDS011;69157;53.094;10.016;2023-05-19T07:29:06;4.13;;;1.15;;
54372;SDS011;69157;53.094;10.016;2023-05-19T07:31:33;3.88;;;1.40;;
54372;SDS011;69157;53.094;10.016;2023-05-19T07:33:59;1.80;;;1.00;;
54372;SDS011;69157;53.094;10.016;2023-05-19T07:36:25;2.63;;;1.30;;
54372;SDS011;69157;53.094;10.016;2023-05-19T07:38:51;1.58;;;1.10;;
54372;SDS011;69157;53.094;10.016;2023-05-19T07:41:17;2.67;;;1.05;;
54372;SDS011;69157;53.094;10.016;2023-05-19T07:43:43;1.88;;;1.25;;
54372;SDS011;69157;53.094;10.016;2023-05-19T07:46:09;2.13;;;1.20;;
54372;SDS011;69157;53.094;10.016;2023-05-19T07:48:36;0.82;;;0.77;;
54372;SDS011;69157;53.094;10.016;2023-05-19T07:51:02;2.38;;;1.02;;
54372;SDS011;69157;53.094;10.016;2023-05-19T07:53:28;3.78;;;1.13;;
54372;SDS011;69157;53.094;10.016;2023-05-19T07:55:54;2.47;;;1.08;;
54372;SDS011;69157;53.094;10.016;2023-05-19T07:58:21;3.85;;;0.82;;
54372;SDS011;69157;53.094;10.016;2023-05-19T08:00:47;1.50;;;0.60;;
54372;SDS011;69157;53.094;10.016;2023-05-19T08:03:13;2.85;;;0.70;;
54372;SDS011;69157;53.094;10.016;2023-05-19T08:05:41;2.45;;;1.00;;
54372;SDS011;69157;53.094;10.016;2023-05-19T08:08:07;3.22;;;0.80;;
54372;SDS011;69157;53.094;10.016;2023-05-19T08:10:35;4.00;;;0.80;;
54372;SDS011;69157;53.094;10.016;2023-05-19T08:13:02;2.83;;;0.80;;
54372;SDS011;69157;53.094;10.016;2023-05-19T08:15:28;2.22;;;0.80;;
54372;SDS011;69157;53.094;10.016;2023-05-19T08:17:54;1.58;;;1.00;;
54372;SDS011;69157;53.094;10.016;2023-05-19T08:20:20;2.08;;;0.70;;
54372;SDS011;69157;53.094;10.016;2023-05-19T08:22:48;0.70;;;0.65;;
54372;SDS011;69157;53.094;10.016;2023-05-19T08:25:15;1.10;;;0.88;;
54372;SDS011;69157;53.094;10.016;2023-05-19T08:27:43;3.35;;;0.85;;
54372;SDS011;69157;53.094;10.016;2023-05-19T08:30:10;1.13;;;0.70;;
54372;SDS011;69157;53.094;10.016;2023-05-19T08:32:36;3.47;;;0.80;;
54372;SDS011;69157;53.094;10.016;2023-05-19T08:35:02;5.13;;;0.80;;
54372;SDS011;69157;53.094;10.016;2023-05-19T08:37:28;3.40;;;0.80;;
54372;SDS011;69157;53.094;10.016;2023-05-19T08:39:54;2.42;;;0.82;;
54372;SDS011;69157;53.094;10.016;2023-05-19T08:42:21;0.90;;;0.70;;
54372;SDS011;69157;53.094;10.016;2023-05-19T08:44:47;0.95;;;0.70;;
54372;SDS011;69157;53.094;10.016;2023-05-19T08:47:13;4.50;;;1.10;;
54372;SDS011;69157;53.094;10.016;2023-05-19T08:49:43;3.20;;;0.90;;
54372;SDS011;69157;53.094;10.016;2023-05-19T08:54:42;1.20;;;0.65;;
54372;SDS011;69157;53.094;10.016;2023-05-19T08:59:36;2.10;;;0.68;;
54372;SDS011;69157;53.094;10.016;2023-05-19T09:02:04;0.85;;;0.70;;
54372;SDS011;69157;53.094;10.016;2023-05-19T09:04:30;2.72;;;0.80;;
54372;SDS011;69157;53.094;10.016;2023-05-19T09:06:56;2.10;;;0.70;;
54372;SDS011;69157;53.094;10.016;2023-05-19T09:09:26;1.70;;;0.65;;
54372;SDS011;69157;53.094;10.016;2023-05-19T09:11:52;2.15;;;0.63;;
54372;SDS011;69157;53.094;10.016;2023-05-19T09:14:18;1.83;;;0.65;;
54372;SDS011;69157;53.094;10.016;2023-05-19T09:16:44;2.78;;;0.80;;
54372;SDS011;69157;53.094;10.016;2023-05-19T09:19:14;1.52;;;0.90;;
54372;SDS011;69157;53.094;10.016;2023-05-19T09:21:41;1.08;;;0.85;;
54372;SDS011;69157;53.094;10.016;2023-05-19T09:24:08;0.82;;;0.70;;
54372;SDS011;69157;53.094;10.016;2023-05-19T09:26:37;1.17;;;0.60;;
54372;SDS011;69157;53.094;10.016;2023-05-19T09:29:12;2.17;;;0.77;;
54372;SDS011;69157;53.094;10.016;2023-05-19T09:31:40;2.45;;;0.60;;
54372;SDS011;69157;53.094;10.016;2023-05-19T09:34:13;2.58;;;0.80;;
54372;SDS011;69157;53.094;10.016;2023-05-19T09:36:39;1.88;;;0.70;;
54372;SDS011;69157;53.094;10.016;2023-05-19T09:39:12;1.95;;;0.68;;
54372;SDS011;69157;53.094;10.016;2023-05-19T09:41:38;1.45;;;0.70;;
54372;SDS011;69157;53.094;10.016;2023-05-19T09:44:05;1.45;;;0.68;;
54372;SDS011;69157;53.094;10.016;2023-05-19T09:46:31;1.83;;;0.80;;
54372;SDS011;69157;53.094;10.016;2023-05-19T09:49:06;1.83;;;0.85;;
54372;SDS011;69157;53.094;10.016;2023-05-19T09:51:34;2.88;;;0.70;;
54372;SDS011;69157;53.094;10.016;2023-05-19T09:54:03;2.80;;;1.10;;
54372;SDS011;69157;53.094;10.016;2023-05-19T09:56:33;2.58;;;0.70;;
54372;SDS011;69157;53.094;10.016;2023-05-19T09:59:00;0.80;;;0.70;;
54372;SDS011;69157;53.094;10.016;2023-05-19T10:01:26;1.58;;;0.70;;
54372;SDS011;69157;53.094;10.016;2023-05-19T10:03:52;1.58;;;0.80;;
54372;SDS011;69157;53.094;10.016;2023-05-19T10:06:19;2.47;;;0.98;;
54372;SDS011;69157;53.094;10.016;2023-05-19T10:08:45;1.27;;;0.65;;
54372;SDS011;69157;53.094;10.016;2023-05-19T10:11:12;2.00;;;0.70;;
54372;SDS011;69157;53.094;10.016;2023-05-19T10:13:39;1.92;;;0.90;;
54372;SDS011;69157;53.094;10.016;2023-05-19T10:16:05;1.65;;;0.70;;
54372;SDS011;69157;53.094;10.016;2023-05-19T10:18:31;1.23;;;0.82;;
54372;SDS011;69157;53.094;10.016;2023-05-19T10:20:58;1.75;;;0.77;;
54372;SDS011;69157;53.094;10.016;2023-05-19T10:23:25;3.70;;;0.75;;
54372;SDS011;69157;53.094;10.016;2023-05-19T10:25:52;1.05;;;0.80;;
54372;SDS011;69157;53.094;10.016;2023-05-19T10:28:19;1.60;;;0.60;;
54372;SDS011;69157;53.094;10.016;2023-05-19T10:30:49;1.30;;;0.80;;
54372;SDS011;69157;53.094;10.016;2023-05-19T10:33:16;0.85;;;0.60;;
54372;SDS011;69157;53.094;10.016;2023-05-19T10:43:36;0.52;;;0.52;;
54372;SDS011;69157;53.094;10.016;2023-05-19T10:46:04;1.65;;;0.60;;
54372;SDS011;69157;53.094;10.016;2023-05-19T10:48:34;0.80;;;0.70;;
54372;SDS011;69157;53.094;10.016;2023-05-19T10:51:00;2.35;;;0.98;;
54372;SDS011;69157;53.094;10.016;2023-05-19T10:53:30;2.08;;;0.70;;
54372;SDS011;69157;53.094;10.016;2023-05-19T10:55:57;1.38;;;0.80;;
54372;SDS011;69157;53.094;10.016;2023-05-19T10:58:35;0.82;;;0.60;;
54372;SDS011;69157;53.094;10.016;2023-05-19T11:01:13;0.73;;;0.70;;
54372;SDS011;69157;53.094;10.016;2023-05-19T11:03:48;3.38;;;0.63;;
54372;SDS011;69157;53.094;10.016;2023-05-19T11:08:42;0.70;;;0.60;;
54372;SDS011;69157;53.094;10.016;2023-05-19T11:11:13;1.27;;;0.68;;
54372;SDS011;69157;53.094;10.016;2023-05-19T11:13:42;0.73;;;0.60;;
54372;SDS011;69157;53.094;10.016;2023-05-19T11:16:08;2.83;;;0.50;;
54372;SDS011;69157;53.094;10.016;2023-05-19T11:18:34;3.05;;;0.73;;
54372;SDS011;69157;53.094;10.016;2023-05-19T11:21:02;1.65;;;0.60;;
54372;SDS011;69157;53.094;10.016;2023-05-19T11:23:29;0.90;;;0.75;;
54372;SDS011;69157;53.094;10.016;2023-05-19T11:25:59;0.77;;;0.77;;
54372;SDS011;69157;53.094;10.016;2023-05-19T11:28:26;0.93;;;0.70;;
54372;SDS011;69157;53.094;10.016;2023-05-19T11:30:54;2.78;;;0.68;;
54372;SDS011;69157;53.094;10.016;2023-05-19T11:33:21;0.50;;;0.45;;
54372;SDS011;69157;53.094;10.016;2023-05-19T11:35:51;2.70;;;0.70;;
54372;SDS011;69157;53.094;10.016;2023-05-19T11:38:18;1.05;;;0.57;;
54372;SDS011;69157;53.094;10.016;2023-05-19T11:40:44;2.13;;;0.60;;
54372;SDS011;69157;53.094;10.016;2023-05-19T11:43:11;0.57;;;0.52;;
54372;SDS011;69157;53.094;10.016;2023-05-19T11:45:38;0.73;;;0.60;;
54372;SDS011;69157;53.094;10.016;2023-05-19T11:48:04;1.23;;;0.85;;
54372;SDS011;69157;53.094;10.016;2023-05-19T11:50:31;0.88;;;0.55;;
54372;SDS011;69157;53.094;10.016;2023-05-19T11:52:58;1.15;;;0.70;;
54372;SDS011;69157;53.094;10.016;2023-05-19T11:55:24;2.03;;;0.77;;
54372;SDS011;69157;53.094;10.016;2023-05-19T12:00:26;1.38;;;0.80;;
54372;SDS011;69157;53.094;10.016;2023-05-19T12:02:52;0.50;;;0.50;;
54372;SDS011;69157;53.094;10.016;2023-05-19T12:05:21;1.20;;;0.57;;
54372;SDS011;69157;53.094;10.016;2023-05-19T12:07:48;2.50;;;0.80;;
54372;SDS011;69157;53.094;10.016;2023-05-19T12:10:18;2.90;;;0.77;;
54372;SDS011;69157;53.094;10.016;2023-05-19T12:12:46;1.80;;;0.60;;
54372;SDS011;69157;53.094;10.016;2023-05-19T12:15:15;0.95;;;0.60;;
54372;SDS011;69157;53.094;10.016;2023-05-19T12:17:44;1.63;;;0.60;;
54372;SDS011;69157;53.094;10.016;2023-05-19T12:20:12;0.68;;;0.55;;
54372;SDS011;69157;53.094;10.016;2023-05-19T12:22:38;2.53;;;0.68;;
54372;SDS011;69157;53.094;10.016;2023-05-19T12:25:04;0.93;;;0.70;;
54372;SDS011;69157;53.094;10.016;2023-05-19T12:27:33;0.80;;;0.60;;
54372;SDS011;69157;53.094;10.016;2023-05-19T12:30:00;0.60;;;0.50;;
54372;SDS011;69157;53.094;10.016;2023-05-19T12:32:27;4.32;;;0.70;;
54372;SDS011;69157;53.094;10.016;2023-05-19T12:34:57;1.42;;;0.50;;
54372;SDS011;69157;53.094;10.016;2023-05-19T12:37:27;0.80;;;0.70;;
54372;SDS011;69157;53.094;10.016;2023-05-19T12:39:54;0.85;;;0.52;;
54372;SDS011;69157;53.094;10.016;2023-05-19T12:42:20;0.80;;;0.60;;
54372;SDS011;69157;53.094;10.016;2023-05-19T12:44:48;2.20;;;0.50;;
54372;SDS011;69157;53.094;10.016;2023-05-19T12:47:15;0.68;;;0.60;;
54372;SDS011;69157;53.094;10.016;2023-05-19T12:52:24;0.60;;;0.60;;
54372;SDS011;69157;53.094;10.016;2023-05-19T12:55:03;0.68;;;0.60;;
54372;SDS011;69157;53.094;10.016;2023-05-19T12:57:34;1.63;;;0.70;;
54372;SDS011;69157;53.094;10.016;2023-05-19T13:00:02;3.03;;;0.65;;
54372;SDS011;69157;53.094;10.016;2023-05-19T13:02:32;0.88;;;0.70;;
54372;SDS011;69157;53.094;10.016;2023-05-19T13:04:58;1.00;;;0.82;;
54372;SDS011;69157;53.094;10.016;2023-05-19T13:07:24;0.50;;;0.50;;
54372;SDS011;69157;53.094;10.016;2023-05-19T13:09:51;0.85;;;0.60;;
54372;SDS011;69157;53.094;10.016;2023-05-19T13:12:17;3.58;;;0.70;;
54372;SDS011;69157;53.094;10.016;2023-05-19T13:14:44;2.70;;;0.90;;
54372;SDS011;69157;53.094;10.016;2023-05-19T13:17:10;0.75;;;0.65;;
54372;SDS011;69157;53.094;10.016;2023-05-19T13:19:36;3.10;;;0.95;;
54372;SDS011;69157;53.094;10.016;2023-05-19T13:22:02;1.05;;;0.65;;
54372;SDS011;69157;53.094;10.016;2023-05-19T13:24:28;1.08;;;0.50;;
54372;SDS011;69157;53.094;10.016;2023-05-19T13:26:55;2.22;;;0.70;;
54372;SDS011;69157;53.094;10.016;2023-05-19T13:29:21;0.55;;;0.50;;
54372;SDS011;69157;53.094;10.016;2023-05-19T13:31:47;1.10;;;0.60;;
54372;SDS011;69157;53.094;10.016;2023-05-19T13:34:13;1.23;;;0.70;;
54372;SDS011;69157;53.094;10.016;2023-05-19T13:36:41;0.98;;;0.60;;
54372;SDS011;69157;53.094;10.016;2023-05-19T13:39:11;0.60;;;0.50;;
54372;SDS011;69157;53.094;10.016;2023-05-19T13:41:38;1.30;;;0.60;;
54372;SDS011;69157;53.094;10.016;2023-05-19T13:44:04;1.83;;;0.70;;
54372;SDS011;69157;53.094;10.016;2023-05-19T13:46:30;1.58;;;0.70;;
54372;SDS011;69157;53.094;10.016;2023-05-19T13:48:56;1.02;;;0.60;;
54372;SDS011;69157;53.094;10.016;2023-05-19T13:51:22;2.15;;;0.60;;
54372;SDS011;69157;53.094;10.016;2023-05-19T13:53:48;2.15;;;0.65;;
54372;SDS011;69157;53.094;10.016;2023-05-19T13:56:15;1.15;;;0.70;;
54372;SDS011;69157;53.094;10.016;2023-05-19T13:58:41;0.65;;;0.50;;
54372;SDS011;69157;53.094;10.016;2023-05-19T14:01:07;0.65;;;0.60;;
54372;SDS011;69157;53.094;10.016;2023-05-19T14:03:33;1.83;;;0.63;;
54372;SDS011;69157;53.094;10.016;2023-05-19T14:06:00;0.85;;;0.63;;
54372;SDS011;69157;53.094;10.016;2023-05-19T14:08:27;3.60;;;0.80;;
54372;SDS011;69157;53.094;10.016;2023-05-19T14:10:54;2.22;;;0.75;;
54372;SDS011;69157;53.094;10.016;2023-05-19T14:13:21;0.68;;;0.57;;
54372;SDS011;69157;53.094;10.016;2023-05-19T14:15:47;1.90;;;0.75;;
54372;SDS011;69157;53.094;10.016;2023-05-19T14:18:13;1.80;;;0.77;;
54372;SDS011;69157;53.094;10.016;2023-05-19T14:20:40;1.85;;;0.60;;
54372;SDS011;69157;53.094;10.016;2023-05-19T14:23:06;1.42;;;0.65;;
54372;SDS011;69157;53.094;10.016;2023-05-19T14:25:32;2.15;;;0.70;;
54372;SDS011;69157;53.094;10.016;2023-05-19T14:27:58;1.90;;;0.60;;
54372;SDS011;69157;53.094;10.016;2023-05-19T14:30:24;1.13;;;0.70;;
54372;SDS011;69157;53.094;10.016;2023-05-19T14:32:50;0.75;;;0.52;;
54372;SDS011;69157;53.094;10.016;2023-05-19T14:35:16;1.35;;;0.90;;
54372;SDS011;69157;53.094;10.016;2023-05-19T14:37:43;1.33;;;0.73;;
54372;SDS011;69157;53.094;10.016;2023-05-19T14:40:09;0.60;;;0.60;;
54372;SDS011;69157;53.094;10.016;2023-05-19T14:42:35;0.98;;;0.68;;
54372;SDS011;69157;53.094;10.016;2023-05-19T14:45:01;0.70;;;0.70;;
54372;SDS011;69157;53.094;10.016;2023-05-19T14:47:27;0.70;;;0.70;;
54372;SDS011;69157;53.094;10.016;2023-05-19T14:49:53;1.55;;;0.75;;
54372;SDS011;69157;53.094;10.016;2023-05-19T14:52:20;1.13;;;0.75;;
54372;SDS011;69157;53.094;10.016;2023-05-19T14:54:46;0.88;;;0.75;;
54372;SDS011;69157;53.094;10.016;2023-05-19T14:57:12;1.83;;;0.70;;
54372;SDS011;69157;53.094;10.016;2023-05-19T14:59:38;0.90;;;0.70;;
54372;SDS011;69157;53.094;10.016;2023-05-19T15:02:04;1.23;;;0.70;;
54372;SDS011;69157;53.094;10.016;2023-05-19T15:04:30;1.08;;;0.63;;
54372;SDS011;69157;53.094;10.016;2023-05-19T15:06:56;2.72;;;0.70;;